Terminal Aerodrome Forecast
Issued by NWS

Home | Current Version | Previous Version | Text Only | Print | Product List | Glossary On
Versions: 1 2 3 4 5 6 7 8 9 10 11 12
000
FTUS42 KMLB 301138
TAFLEE
TAF
KLEE 301138Z 3012/3112 07005KT P6SM FEW015 BKN150 OVC250
     FM301400 14007KT P6SM VCSH SCT020 BKN035 OVC060
     FM301800 14009KT 6SM -RA VCTS BKN030CB OVC100
      TEMPO 3018/3022 3SM TSRA BKN020CB OVC050
     FM310100 13006KT P6SM VCSH SCT020 BKN050 OVC250=

USA.gov is the U.S. government's official web portal to all federal, state and local government web resources and services.